sensor_id;sensor_type;location;lat;lon;timestamp;pressure;altitude;pressure_sealevel;temperature;humidity
47636;BME280;33364;50.766;15.338;2024-01-06T00:01:41;93931.38;;;1.04;99.40
47636;BME280;33364;50.766;15.338;2024-01-06T00:04:07;93928.25;;;1.02;99.26
47636;BME280;33364;50.766;15.338;2024-01-06T00:06:33;93931.91;;;1.06;99.50
47636;BME280;33364;50.766;15.338;2024-01-06T00:08:59;93927.50;;;1.06;99.27
47636;BME280;33364;50.766;15.338;2024-01-06T00:11:24;93930.09;;;1.06;99.33
47636;BME280;33364;50.766;15.338;2024-01-06T00:13:50;93936.09;;;1.12;99.53
47636;BME280;33364;50.766;15.338;2024-01-06T00:16:17;93949.13;;;1.17;99.36
47636;BME280;33364;50.766;15.338;2024-01-06T00:18:46;93943.16;;;1.16;99.35
47636;BME280;33364;50.766;15.338;2024-01-06T00:21:13;93941.88;;;1.19;99.50
47636;BME280;33364;50.766;15.338;2024-01-06T00:23:42;93944.50;;;1.24;99.62
47636;BME280;33364;50.766;15.338;2024-01-06T00:26:09;93943.50;;;1.30;99.31
47636;BME280;33364;50.766;15.338;2024-01-06T00:28:35;93934.84;;;1.19;99.33
47636;BME280;33364;50.766;15.338;2024-01-06T00:31:01;93932.25;;;1.19;99.26
47636;BME280;33364;50.766;15.338;2024-01-06T00:33:27;93945.75;;;1.16;99.47
47636;BME280;33364;50.766;15.338;2024-01-06T00:35:53;93943.16;;;1.16;99.46
47636;BME280;33364;50.766;15.338;2024-01-06T00:38:20;93943.41;;;1.15;99.38
47636;BME280;33364;50.766;15.338;2024-01-06T00:40:46;93930.41;;;1.15;99.41
47636;BME280;33364;50.766;15.338;2024-01-06T00:43:12;93932.75;;;1.16;99.55
47636;BME280;33364;50.766;15.338;2024-01-06T00:45:38;93934.06;;;1.19;99.73
47636;BME280;33364;50.766;15.338;2024-01-06T00:48:04;93932.75;;;1.16;99.84
47636;BME280;33364;50.766;15.338;2024-01-06T00:50:30;93927.53;;;1.16;99.84
47636;BME280;33364;50.766;15.338;2024-01-06T00:52:56;93926.78;;;1.16;99.92
47636;BME280;33364;50.766;15.338;2024-01-06T00:55:22;93934.31;;;1.17;99.96
47636;BME280;33364;50.766;15.338;2024-01-06T00:57:48;93933.03;;;1.20;100.00
47636;BME280;33364;50.766;15.338;2024-01-06T01:00:14;93935.44;;;1.26;99.89
47636;BME280;33364;50.766;15.338;2024-01-06T01:02:40;93930.97;;;1.22;99.77
47636;BME280;33364;50.766;15.338;2024-01-06T01:05:06;93943.97;;;1.22;100.00
47636;BME280;33364;50.766;15.338;2024-01-06T01:07:35;93943.22;;;1.26;100.00
47636;BME280;33364;50.766;15.338;2024-01-06T01:10:00;93944.78;;;1.27;100.00
47636;BME280;33364;50.766;15.338;2024-01-06T01:12:26;93940.88;;;1.25;100.00
47636;BME280;33364;50.766;15.338;2024-01-06T01:14:52;93949.19;;;1.27;100.00
47636;BME280;33364;50.766;15.338;2024-01-06T01:17:19;93950.25;;;1.26;100.00
47636;BME280;33364;50.766;15.338;2024-01-06T01:19:45;93958.03;;;1.26;100.00
47636;BME280;33364;50.766;15.338;2024-01-06T01:22:11;93952.84;;;1.26;100.00
47636;BME280;33364;50.766;15.338;2024-01-06T01:24:37;93954.91;;;1.24;100.00
47636;BME280;33364;50.766;15.338;2024-01-06T01:27:03;93949.69;;;1.24;100.00
47636;BME280;33364;50.766;15.338;2024-01-06T01:29:28;93950.75;;;1.28;100.00
47636;BME280;33364;50.766;15.338;2024-01-06T01:31:54;93954.94;;;1.29;100.00
47636;BME280;33364;50.766;15.338;2024-01-06T01:34:20;93946.34;;;1.28;100.00
47636;BME280;33364;50.766;15.338;2024-01-06T01:36:46;93940.66;;;1.32;100.00
47636;BME280;33364;50.766;15.338;2024-01-06T01:39:11;93933.13;;;1.35;100.00
47636;BME280;33364;50.766;15.338;2024-01-06T01:41:37;93927.34;;;1.28;100.00
47636;BME280;33364;50.766;15.338;2024-01-06T01:44:03;93932.03;;;1.26;100.00
47636;BME280;33364;50.766;15.338;2024-01-06T01:46:29;93933.56;;;1.22;100.00
47636;BME280;33364;50.766;15.338;2024-01-06T01:48:56;93931.22;;;1.20;100.00
47636;BME280;33364;50.766;15.338;2024-01-06T01:51:29;93925.50;;;1.23;100.00
47636;BME280;33364;50.766;15.338;2024-01-06T01:53:55;93927.09;;;1.24;100.00
47636;BME280;33364;50.766;15.338;2024-01-06T01:56:24;93934.63;;;1.26;100.00
47636;BME280;33364;50.766;15.338;2024-01-06T01:58:50;93926.56;;;1.27;100.00
47636;BME280;33364;50.766;15.338;2024-01-06T02:01:17;93923.19;;;1.27;100.00
47636;BME280;33364;50.766;15.338;2024-01-06T02:03:42;93924.50;;;1.30;100.00
47636;BME280;33364;50.766;15.338;2024-01-06T02:06:11;93916.94;;;1.28;100.00
47636;BME280;33364;50.766;15.338;2024-01-06T02:08:38;93919.56;;;1.28;100.00
47636;BME280;33364;50.766;15.338;2024-01-06T02:11:05;93919.03;;;1.26;100.00
47636;BME280;33364;50.766;15.338;2024-01-06T02:13:34;93913.28;;;1.24;100.00
47636;BME280;33364;50.766;15.338;2024-01-06T02:16:04;93906.53;;;1.28;100.00
47636;BME280;33364;50.766;15.338;2024-01-06T02:18:31;93903.94;;;1.28;100.00
47636;BME280;33364;50.766;15.338;2024-01-06T02:21:02;93902.38;;;1.27;100.00
47636;BME280;33364;50.766;15.338;2024-01-06T02:23:28;93903.16;;;1.27;100.00
47636;BME280;33364;50.766;15.338;2024-01-06T02:25:55;93912.78;;;1.27;100.00
47636;BME280;33364;50.766;15.338;2024-01-06T02:28:21;93901.63;;;1.26;100.00
47636;BME280;33364;50.766;15.338;2024-01-06T02:30:48;93905.75;;;1.27;100.00
47636;BME280;33364;50.766;15.338;2024-01-06T02:33:13;93904.22;;;1.26;100.00
47636;BME280;33364;50.766;15.338;2024-01-06T02:35:39;93919.53;;;1.23;100.00
47636;BME280;33364;50.766;15.338;2024-01-06T02:38:06;93912.03;;;1.26;100.00
47636;BME280;33364;50.766;15.338;2024-01-06T02:40:32;93909.41;;;1.26;100.00
47636;BME280;33364;50.766;15.338;2024-01-06T02:42:58;93910.44;;;1.25;100.00
47636;BME280;33364;50.766;15.338;2024-01-06T02:45:24;93912.50;;;1.23;100.00
47636;BME280;33364;50.766;15.338;2024-01-06T02:47:50;93913.53;;;1.22;100.00
47636;BME280;33364;50.766;15.338;2024-01-06T02:50:16;93910.94;;;1.22;100.00
47636;BME280;33364;50.766;15.338;2024-01-06T02:52:42;93919.00;;;1.21;100.00
47636;BME280;33364;50.766;15.338;2024-01-06T02:55:08;93920.28;;;1.18;100.00
47636;BME280;33364;50.766;15.338;2024-01-06T02:57:34;93924.94;;;1.16;100.00
47636;BME280;33364;50.766;15.338;2024-01-06T03:00:01;93914.31;;;1.18;100.00
47636;BME280;33364;50.766;15.338;2024-01-06T03:02:27;93921.06;;;1.19;100.00
47636;BME280;33364;50.766;15.338;2024-01-06T03:04:53;93919.50;;;1.18;100.00
47636;BME280;33364;50.766;15.338;2024-01-06T03:07:18;93917.94;;;1.17;100.00
47636;BME280;33364;50.766;15.338;2024-01-06T03:09:44;93919.00;;;1.21;100.00
47636;BME280;33364;50.766;15.338;2024-01-06T03:12:10;93919.50;;;1.18;100.00
47636;BME280;33364;50.766;15.338;2024-01-06T03:14:36;93922.66;;;1.20;100.00
47636;BME280;33364;50.766;15.338;2024-01-06T03:17:02;93926.53;;;1.22;100.00
47636;BME280;33364;50.766;15.338;2024-01-06T03:19:29;93925.75;;;1.22;100.00
47636;BME280;33364;50.766;15.338;2024-01-06T03:21:55;93929.16;;;1.27;100.00
47636;BME280;33364;50.766;15.338;2024-01-06T03:24:22;93925.03;;;1.26;100.00
47636;BME280;33364;50.766;15.338;2024-01-06T03:26:48;93923.47;;;1.31;100.00
47636;BME280;33364;50.766;15.338;2024-01-06T03:29:13;93918.75;;;1.27;100.00
47636;BME280;33364;50.766;15.338;2024-01-06T03:31:43;93925.28;;;1.25;99.95
47636;BME280;33364;50.766;15.338;2024-01-06T03:34:09;93921.34;;;1.22;99.68
47636;BME280;33364;50.766;15.338;2024-01-06T03:36:39;93925.25;;;1.20;99.81
47636;BME280;33364;50.766;15.338;2024-01-06T03:39:05;93927.84;;;1.20;100.00
47636;BME280;33364;50.766;15.338;2024-01-06T03:41:31;93933.31;;;1.23;100.00
47636;BME280;33364;50.766;15.338;2024-01-06T03:43:57;93927.06;;;1.19;100.00
47636;BME280;33364;50.766;15.338;2024-01-06T03:46:23;93924.22;;;1.21;99.83
47636;BME280;33364;50.766;15.338;2024-01-06T03:48:49;93926.81;;;1.21;100.00
47636;BME280;33364;50.766;15.338;2024-01-06T03:51:15;93925.25;;;1.20;99.94
47636;BME280;33364;50.766;15.338;2024-01-06T03:53:41;93933.81;;;1.20;100.00
47636;BME280;33364;50.766;15.338;2024-01-06T03:56:07;93930.19;;;1.21;100.00
47636;BME280;33364;50.766;15.338;2024-01-06T03:58:33;93929.41;;;1.21;100.00
47636;BME280;33364;50.766;15.338;2024-01-06T04:00:58;93936.44;;;1.25;100.00
47636;BME280;33364;50.766;15.338;2024-01-06T04:03:24;93936.69;;;1.24;100.00
47636;BME280;33364;50.766;15.338;2024-01-06T04:05:50;93934.66;;;1.31;99.99
47636;BME280;33364;50.766;15.338;2024-01-06T04:08:17;93936.97;;;1.27;100.00
47636;BME280;33364;50.766;15.338;2024-01-06T04:10:43;93934.34;;;1.22;100.00
47636;BME280;33364;50.766;15.338;2024-01-06T04:13:10;93938.50;;;1.23;99.89
47636;BME280;33364;50.766;15.338;2024-01-06T04:15:36;93933.31;;;1.23;100.00
47636;BME280;33364;50.766;15.338;2024-01-06T04:18:03;93925.75;;;1.22;99.94
47636;BME280;33364;50.766;15.338;2024-01-06T04:20:30;93934.63;;;1.21;100.00
47636;BME280;33364;50.766;15.338;2024-01-06T04:22:56;93927.84;;;1.20;100.00
47636;BME280;33364;50.766;15.338;2024-01-06T04:25:21;93935.41;;;1.21;100.00
47636;BME280;33364;50.766;15.338;2024-01-06T04:27:47;93937.72;;;1.23;100.00
47636;BME280;33364;50.766;15.338;2024-01-06T04:30:14;93932.81;;;1.26;100.00
47636;BME280;33364;50.766;15.338;2024-01-06T04:32:41;93921.13;;;1.29;100.00
47636;BME280;33364;50.766;15.338;2024-01-06T04:35:07;93926.59;;;1.33;100.00
47636;BME280;33364;50.766;15.338;2024-01-06T04:37:33;93927.38;;;1.33;100.00
47636;BME280;33364;50.766;15.338;2024-01-06T04:39:59;93938.31;;;1.35;100.00
47636;BME280;33364;50.766;15.338;2024-01-06T04:42:25;93940.91;;;1.35;100.00
47636;BME280;33364;50.766;15.338;2024-01-06T04:44:51;93942.50;;;1.36;100.00
47636;BME280;33364;50.766;15.338;2024-01-06T04:47:17;93936.25;;;1.32;100.00
47636;BME280;33364;50.766;15.338;2024-01-06T04:49:43;93937.53;;;1.35;100.00
47636;BME280;33364;50.766;15.338;2024-01-06T04:52:10;93936.25;;;1.32;100.00
47636;BME280;33364;50.766;15.338;2024-01-06T04:54:35;93931.78;;;1.33;100.00
47636;BME280;33364;50.766;15.338;2024-01-06T04:57:02;93930.50;;;1.35;100.00
47636;BME280;33364;50.766;15.338;2024-01-06T04:59:27;93927.66;;;1.37;100.00
47636;BME280;33364;50.766;15.338;2024-01-06T05:01:53;93923.25;;;1.37;100.00
47636;BME280;33364;50.766;15.338;2024-01-06T05:04:19;93929.50;;;1.36;100.00
47636;BME280;33364;50.766;15.338;2024-01-06T05:06:45;93934.69;;;1.36;100.00
47636;BME280;33364;50.766;15.338;2024-01-06T05:09:11;93931.81;;;1.38;100.00
47636;BME280;33364;50.766;15.338;2024-01-06T05:11:37;93935.47;;;1.37;100.00
47636;BME280;33364;50.766;15.338;2024-01-06T05:14:02;93929.50;;;1.36;100.00
47636;BME280;33364;50.766;15.338;2024-01-06T05:16:28;93941.47;;;1.37;100.00
47636;BME280;33364;50.766;15.338;2024-01-06T05:18:54;93930.28;;;1.37;100.00
47636;BME280;33364;50.766;15.338;2024-01-06T05:21:20;93929.22;;;1.38;100.00
47636;BME280;33364;50.766;15.338;2024-01-06T05:23:46;93919.59;;;1.38;100.00
47636;BME280;33364;50.766;15.338;2024-01-06T05:26:12;93916.25;;;1.43;100.00
47636;BME280;33364;50.766;15.338;2024-01-06T05:28:39;93910.53;;;1.41;100.00
47636;BME280;33364;50.766;15.338;2024-01-06T05:31:06;93915.72;;;1.41;100.00
47636;BME280;33364;50.766;15.338;2024-01-06T05:33:31;93916.50;;;1.41;100.00
47636;BME280;33364;50.766;15.338;2024-01-06T05:35:57;93922.22;;;1.43;100.00
47636;BME280;33364;50.766;15.338;2024-01-06T05:38:23;93924.31;;;1.41;100.00
47636;BME280;33364;50.766;15.338;2024-01-06T05:40:49;93929.50;;;1.41;100.00
47636;BME280;33364;50.766;15.338;2024-01-06T05:43:14;93931.88;;;1.43;100.00
47636;BME280;33364;50.766;15.338;2024-01-06T05:45:40;93934.72;;;1.41;100.00
47636;BME280;33364;50.766;15.338;2024-01-06T05:48:10;93951.88;;;1.42;100.00
47636;BME280;33364;50.766;15.338;2024-01-06T05:50:40;93955.53;;;1.41;100.00
47636;BME280;33364;50.766;15.338;2024-01-06T05:53:06;93960.47;;;1.43;100.00
47636;BME280;33364;50.766;15.338;2024-01-06T05:55:33;93957.09;;;1.42;100.00
47636;BME280;33364;50.766;15.338;2024-01-06T05:57:59;93964.09;;;1.42;100.00
47636;BME280;33364;50.766;15.338;2024-01-06T06:00:25;93969.81;;;1.44;100.00
47636;BME280;33364;50.766;15.338;2024-01-06T06:02:50;93973.75;;;1.46;100.00
47636;BME280;33364;50.766;15.338;2024-01-06T06:05:16;93974.53;;;1.47;100.00
47636;BME280;33364;50.766;15.338;2024-01-06T06:07:42;93973.75;;;1.46;100.00
47636;BME280;33364;50.766;15.338;2024-01-06T06:10:10;93969.06;;;1.48;100.00
47636;BME280;33364;50.766;15.338;2024-01-06T06:12:37;93969.59;;;1.50;100.00
47636;BME280;33364;50.766;15.338;2024-01-06T06:15:04;93973.75;;;1.46;100.00
47636;BME280;33364;50.766;15.338;2024-01-06T06:17:32;93978.69;;;1.43;100.00
47636;BME280;33364;50.766;15.338;2024-01-06T06:19:58;93983.63;;;1.44;100.00
47636;BME280;33364;50.766;15.338;2024-01-06T06:22:27;93982.59;;;1.45;100.00
47636;BME280;33364;50.766;15.338;2024-01-06T06:24:56;93986.75;;;1.46;100.00
47636;BME280;33364;50.766;15.338;2024-01-06T06:27:23;93987.28;;;1.48;100.00
47636;BME280;33364;50.766;15.338;2024-01-06T06:29:49;93994.84;;;1.50;100.00
47636;BME280;33364;50.766;15.338;2024-01-06T06:32:15;93993.81;;;1.51;100.00
47636;BME280;33364;50.766;15.338;2024-01-06T06:34:42;94000.81;;;1.50;100.00
47636;BME280;33364;50.766;15.338;2024-01-06T06:37:08;94008.13;;;1.53;100.00
47636;BME280;33364;50.766;15.338;2024-01-06T06:39:34;94012.56;;;1.53;100.00
47636;BME280;33364;50.766;15.338;2024-01-06T06:42:01;94014.38;;;1.52;100.00
47636;BME280;33364;50.766;15.338;2024-01-06T06:44:27;94020.06;;;1.49;100.00
47636;BME280;33364;50.766;15.338;2024-01-06T06:46:54;94013.59;;;1.52;100.00
47636;BME280;33364;50.766;15.338;2024-01-06T06:49:19;94019.56;;;1.52;100.00
47636;BME280;33364;50.766;15.338;2024-01-06T06:51:45;94018.00;;;1.51;100.00
47636;BME280;33364;50.766;15.338;2024-01-06T06:54:14;94014.84;;;1.49;100.00
47636;BME280;33364;50.766;15.338;2024-01-06T06:56:44;94017.47;;;1.49;100.00
47636;BME280;33364;50.766;15.338;2024-01-06T06:59:10;94018.78;;;1.52;100.00
47636;BME280;33364;50.766;15.338;2024-01-06T07:01:37;94020.84;;;1.50;100.00
47636;BME280;33364;50.766;15.338;2024-01-06T07:04:03;94026.03;;;1.50;100.00
47636;BME280;33364;50.766;15.338;2024-01-06T07:06:29;94033.59;;;1.51;100.00
47636;BME280;33364;50.766;15.338;2024-01-06T07:08:56;94032.81;;;1.51;100.00
47636;BME280;33364;50.766;15.338;2024-01-06T07:11:22;94032.03;;;1.50;100.00
47636;BME280;33364;50.766;15.338;2024-01-06T07:13:49;94039.06;;;1.50;100.00
47636;BME280;33364;50.766;15.338;2024-01-06T07:16:15;94033.59;;;1.51;100.00
47636;BME280;33364;50.766;15.338;2024-01-06T07:18:41;94048.19;;;1.52;100.00
47636;BME280;33364;50.766;15.338;2024-01-06T07:21:07;94038.03;;;1.51;100.00
47636;BME280;33364;50.766;15.338;2024-01-06T07:23:33;94046.63;;;1.51;100.00
47636;BME280;33364;50.766;15.338;2024-01-06T07:25:59;94049.22;;;1.51;100.00
47636;BME280;33364;50.766;15.338;2024-01-06T07:28:25;94043.22;;;1.51;100.00
47636;BME280;33364;50.766;15.338;2024-01-06T07:30:51;94045.31;;;1.54;100.00
47636;BME280;33364;50.766;15.338;2024-01-06T07:33:17;94037.50;;;1.54;100.00
47636;BME280;33364;50.766;15.338;2024-01-06T07:35:43;94046.41;;;1.58;100.00
47636;BME280;33364;50.766;15.338;2024-01-06T07:38:09;94051.09;;;1.61;100.00
47636;BME280;33364;50.766;15.338;2024-01-06T07:40:38;94055.25;;;1.62;100.00
47636;BME280;33364;50.766;15.338;2024-01-06T07:43:04;94053.97;;;1.64;100.00
47636;BME280;33364;50.766;15.338;2024-01-06T07:45:31;94064.38;;;1.64;100.00
47636;BME280;33364;50.766;15.338;2024-01-06T07:47:58;94063.09;;;1.67;100.00
47636;BME280;33364;50.766;15.338;2024-01-06T07:50:24;94063.88;;;1.67;100.00
47636;BME280;33364;50.766;15.338;2024-01-06T07:52:49;94068.56;;;1.70;100.00
47636;BME280;33364;50.766;15.338;2024-01-06T07:55:15;94068.88;;;1.74;100.00
47636;BME280;33364;50.766;15.338;2024-01-06T07:57:41;94074.34;;;1.78;100.00
47636;BME280;33364;50.766;15.338;2024-01-06T08:00:08;94076.44;;;1.81;100.00
47636;BME280;33364;50.766;15.338;2024-01-06T08:02:34;94081.41;;;1.82;100.00
47636;BME280;33364;50.766;15.338;2024-01-06T08:05:00;94076.47;;;1.86;100.00
47636;BME280;33364;50.766;15.338;2024-01-06T08:07:25;94073.84;;;1.86;100.00
47636;BME280;33364;50.766;15.338;2024-01-06T08:09:51;94074.41;;;1.88;100.00
47636;BME280;33364;50.766;15.338;2024-01-06T08:12:17;94076.00;;;1.94;100.00
47636;BME280;33364;50.766;15.338;2024-01-06T08:14:43;94074.19;;;1.94;100.00
47636;BME280;33364;50.766;15.338;2024-01-06T08:17:09;94072.09;;;1.96;100.00
47636;BME280;33364;50.766;15.338;2024-01-06T08:19:34;94075.47;;;1.97;100.00
47636;BME280;33364;50.766;15.338;2024-01-06T08:22:01;94083.84;;;1.99;100.00
47636;BME280;33364;50.766;15.338;2024-01-06T08:24:27;94092.44;;;1.99;100.00
47636;BME280;33364;50.766;15.338;2024-01-06T08:26:52;94089.59;;;2.01;100.00
47636;BME280;33364;50.766;15.338;2024-01-06T08:29:18;94089.06;;;2.04;100.00
47636;BME280;33364;50.766;15.338;2024-01-06T08:31:45;94092.22;;;2.06;100.00
47636;BME280;33364;50.766;15.338;2024-01-06T08:34:11;94097.69;;;2.09;100.00
47636;BME280;33364;50.766;15.338;2024-01-06T08:36:37;94101.34;;;2.13;100.00
47636;BME280;33364;50.766;15.338;2024-01-06T08:39:03;94099.53;;;2.14;100.00
47636;BME280;33364;50.766;15.338;2024-01-06T08:41:28;94106.81;;;2.17;100.00
47636;BME280;33364;50.766;15.338;2024-01-06T08:43:54;94107.88;;;2.16;100.00
47636;BME280;33364;50.766;15.338;2024-01-06T08:46:20;94110.22;;;2.18;100.00
47636;BME280;33364;50.766;15.338;2024-01-06T08:48:46;94101.91;;;2.21;100.00
47636;BME280;33364;50.766;15.338;2024-01-06T08:51:12;94104.00;;;2.24;100.00
47636;BME280;33364;50.766;15.338;2024-01-06T08:53:38;94111.03;;;2.28;100.00
47636;BME280;33364;50.766;15.338;2024-01-06T08:56:03;94109.75;;;2.31;100.00
47636;BME280;33364;50.766;15.338;2024-01-06T08:58:29;94117.31;;;2.32;100.00
47636;BME280;33364;50.766;15.338;2024-01-06T09:00:55;94122.00;;;2.35;100.00
47636;BME280;33364;50.766;15.338;2024-01-06T09:03:21;94117.06;;;2.39;100.00
47636;BME280;33364;50.766;15.338;2024-01-06T09:05:56;94120.22;;;2.46;100.00
47636;BME280;33364;50.766;15.338;2024-01-06T09:08:22;94127.81;;;2.47;100.00
47636;BME280;33364;50.766;15.338;2024-01-06T09:10:49;94119.47;;;2.50;100.00
47636;BME280;33364;50.766;15.338;2024-01-06T09:13:17;94118.97;;;2.53;100.00
47636;BME280;33364;50.766;15.338;2024-01-06T09:15:43;94124.69;;;2.55;100.00
47636;BME280;33364;50.766;15.338;2024-01-06T09:18:11;94128.88;;;2.57;100.00
47636;BME280;33364;50.766;15.338;2024-01-06T09:20:38;94132.81;;;2.59;100.00
47636;BME280;33364;50.766;15.338;2024-01-06T09:23:04;94124.72;;;2.61;100.00
47636;BME280;33364;50.766;15.338;2024-01-06T09:25:30;94127.31;;;2.61;100.00
47636;BME280;33364;50.766;15.338;2024-01-06T09:27:56;94127.34;;;2.66;100.00
47636;BME280;33364;50.766;15.338;2024-01-06T09:30:21;94115.34;;;2.65;100.00
47636;BME280;33364;50.766;15.338;2024-01-06T09:32:47;94129.44;;;2.69;100.00
47636;BME280;33364;50.766;15.338;2024-01-06T09:35:13;94119.28;;;2.72;100.00
47636;BME280;33364;50.766;15.338;2024-01-06T09:37:40;94123.72;;;2.77;100.00
47636;BME280;33364;50.766;15.338;2024-01-06T09:40:09;94122.44;;;2.79;100.00
47636;BME280;33364;50.766;15.338;2024-01-06T09:42:37;94121.66;;;2.84;100.00
47636;BME280;33364;50.766;15.338;2024-01-06T09:45:03;94115.66;;;2.88;100.00
47636;BME280;33364;50.766;15.338;2024-01-06T09:47:34;94115.44;;;2.95;100.00
47636;BME280;33364;50.766;15.338;2024-01-06T09:50:01;94127.69;;;3.00;100.00
47636;BME280;33364;50.766;15.338;2024-01-06T09:52:30;94122.22;;;3.01;100.00
47636;BME280;33364;50.766;15.338;2024-01-06T09:54:59;94129.00;;;3.07;100.00
47636;BME280;33364;50.766;15.338;2024-01-06T09:57:26;94130.06;;;3.11;100.00
47636;BME280;33364;50.766;15.338;2024-01-06T09:59:52;94135.78;;;3.18;100.00
47636;BME280;33364;50.766;15.338;2024-01-06T10:02:18;94136.84;;;3.22;100.00
47636;BME280;33364;50.766;15.338;2024-01-06T10:04:46;94131.09;;;3.25;100.00
47636;BME280;33364;50.766;15.338;2024-01-06T10:07:12;94133.72;;;3.30;99.97
47636;BME280;33364;50.766;15.338;2024-01-06T10:09:40;94131.13;;;3.35;99.47
47636;BME280;33364;50.766;15.338;2024-01-06T10:12:07;94132.16;;;3.39;98.86
47636;BME280;33364;50.766;15.338;2024-01-06T10:14:33;94126.16;;;3.44;97.53
47636;BME280;33364;50.766;15.338;2024-01-06T10:16:59;94131.13;;;3.56;96.98
47636;BME280;33364;50.766;15.338;2024-01-06T10:19:25;94133.22;;;3.64;96.18
47636;BME280;33364;50.766;15.338;2024-01-06T10:21:51;94133.72;;;3.66;95.10
47636;BME280;33364;50.766;15.338;2024-01-06T10:24:17;94143.13;;;3.67;94.41
47636;BME280;33364;50.766;15.338;2024-01-06T10:26:47;94133.69;;;3.81;93.07
47636;BME280;33364;50.766;15.338;2024-01-06T10:29:13;94136.06;;;3.82;91.85
47636;BME280;33364;50.766;15.338;2024-01-06T10:31:39;94138.41;;;3.84;90.84
47636;BME280;33364;50.766;15.338;2024-01-06T10:34:05;94140.50;;;3.87;90.84
47636;BME280;33364;50.766;15.338;2024-01-06T10:36:31;94136.06;;;3.88;90.41
47636;BME280;33364;50.766;15.338;2024-01-06T10:38:57;94131.59;;;3.93;90.45
47636;BME280;33364;50.766;15.338;2024-01-06T10:41:24;94121.13;;;4.03;91.20
47636;BME280;33364;50.766;15.338;2024-01-06T10:43:51;94127.41;;;4.07;90.65
47636;BME280;33364;50.766;15.338;2024-01-06T10:46:21;94115.13;;;4.08;90.25
47636;BME280;33364;50.766;15.338;2024-01-06T10:48:49;94115.91;;;4.08;90.39
47636;BME280;33364;50.766;15.338;2024-01-06T10:51:16;94116.97;;;4.12;90.50
47636;BME280;33364;50.766;15.338;2024-01-06T10:53:42;94115.88;;;4.13;90.56
47636;BME280;33364;50.766;15.338;2024-01-06T10:56:09;94120.59;;;4.16;90.34
47636;BME280;33364;50.766;15.338;2024-01-06T10:58:36;94126.34;;;4.13;89.85
47636;BME280;33364;50.766;15.338;2024-01-06T11:01:09;94125.81;;;4.16;90.23
47636;BME280;33364;50.766;15.338;2024-01-06T11:03:37;94131.06;;;4.16;90.03
47636;BME280;33364;50.766;15.338;2024-01-06T11:06:05;94132.34;;;4.14;89.38
47636;BME280;33364;50.766;15.338;2024-01-06T11:08:33;94128.16;;;4.13;89.26
47636;BME280;33364;50.766;15.338;2024-01-06T11:11:02;94128.97;;;4.08;89.01
47636;BME280;33364;50.766;15.338;2024-01-06T11:13:29;94128.44;;;4.11;89.09
47636;BME280;33364;50.766;15.338;2024-01-06T11:15:55;94130.53;;;4.14;89.07
47636;BME280;33364;50.766;15.338;2024-01-06T11:18:32;94123.75;;;4.08;88.75
47636;BME280;33364;50.766;15.338;2024-01-06T11:21:19;94131.06;;;4.11;89.25
47636;BME280;33364;50.766;15.338;2024-01-06T11:24:17;94120.09;;;4.04;89.54
47636;BME280;33364;50.766;15.338;2024-01-06T11:26:50;94117.47;;;4.04;89.36
47636;BME280;33364;50.766;15.338;2024-01-06T11:29:17;94111.22;;;4.10;89.21
47636;BME280;33364;50.766;15.338;2024-01-06T11:31:43;94110.69;;;4.03;88.67
47636;BME280;33364;50.766;15.338;2024-01-06T11:34:16;94108.34;;;4.12;89.02
47636;BME280;33364;50.766;15.338;2024-01-06T11:36:47;94105.44;;;4.13;88.91
47636;BME280;33364;50.766;15.338;2024-01-06T11:39:49;94103.34;;;4.15;89.16
47636;BME280;33364;50.766;15.338;2024-01-06T11:42:15;94103.34;;;4.15;88.87
47636;BME280;33364;50.766;15.338;2024-01-06T11:44:44;94103.59;;;4.14;89.01
47636;BME280;33364;50.766;15.338;2024-01-06T11:47:13;94098.91;;;4.21;89.36
47636;BME280;33364;50.766;15.338;2024-01-06T11:49:44;94103.09;;;4.17;89.15
47636;BME280;33364;50.766;15.338;2024-01-06T11:52:11;94096.28;;;4.21;88.89
47636;BME280;33364;50.766;15.338;2024-01-06T11:54:38;94095.25;;;4.17;89.03
47636;BME280;33364;50.766;15.338;2024-01-06T11:57:05;94098.66;;;4.12;89.50
47636;BME280;33364;50.766;15.338;2024-01-06T11:59:30;94099.72;;;4.06;89.62
47636;BME280;33364;50.766;15.338;2024-01-06T12:01:56;94108.06;;;4.08;89.99
47636;BME280;33364;50.766;15.338;2024-01-06T12:04:22;94108.06;;;4.03;89.66
47636;BME280;33364;50.766;15.338;2024-01-06T12:06:48;94108.09;;;3.98;89.96
47636;BME280;33364;50.766;15.338;2024-01-06T12:09:16;94118.53;;;3.93;89.72
47636;BME280;33364;50.766;15.338;2024-01-06T12:11:44;94123.53;;;3.95;89.86
47636;BME280;33364;50.766;15.338;2024-01-06T12:14:12;94123.28;;;3.91;89.92
47636;BME280;33364;50.766;15.338;2024-01-06T12:16:38;94127.97;;;3.89;90.10
47636;BME280;33364;50.766;15.338;2024-01-06T12:19:04;94130.56;;;3.89;90.42
47636;BME280;33364;50.766;15.338;2024-01-06T12:21:30;94134.75;;;3.90;90.48
47636;BME280;33364;50.766;15.338;2024-01-06T12:24:17;94128.47;;;3.86;90.72
47636;BME280;33364;50.766;15.338;2024-01-06T12:26:46;94131.63;;;3.83;90.64
47636;BME280;33364;50.766;15.338;2024-01-06T12:29:12;94124.81;;;3.82;90.82
47636;BME280;33364;50.766;15.338;2024-01-06T12:31:39;94132.41;;;3.83;90.97
47636;BME280;33364;50.766;15.338;2024-01-06T12:34:05;94125.38;;;3.79;91.09
47636;BME280;33364;50.766;15.338;2024-01-06T12:36:38;94126.41;;;3.78;90.81
47636;BME280;33364;50.766;15.338;2024-01-06T12:39:04;94117.00;;;3.77;90.67
47636;BME280;33364;50.766;15.338;2024-01-06T12:41:31;94119.09;;;3.80;91.10
47636;BME280;33364;50.766;15.338;2024-01-06T12:44:00;94118.31;;;3.79;90.87
47636;BME280;33364;50.766;15.338;2024-01-06T12:46:26;94129.56;;;3.80;91.19
47636;BME280;33364;50.766;15.338;2024-01-06T12:48:52;94126.16;;;3.79;91.11
47636;BME280;33364;50.766;15.338;2024-01-06T12:51:18;94131.63;;;3.83;91.05